HOURLY OBS INDEX

088

Central - north

EILDON FIRE TOWER

Site: 088164
Alt: 637.0m
57km NNE of HEALESVILLE


  Time     Wind        Temp  DP   Baro     Rain since   Rain past  Vis(m), Cloud(base in m), Weather
  local        km/h                         9am  last   hr   10m    
Sat 03:00   NW  9/ 15  11.7  9.3  ------    2.0   0.4   0.4   0.4   ----- 
Sat 03:30  NNE 15/ 22  11.3  9.4  ------    2.0   0.0   0.4   0.0   ----- 
Sat 04:00    N 17/ 22  11.6  9.3  ------    2.0   0.0   0.0   0.0   ----- 
Sat 04:30   NE 17/ 20  11.2  9.1  ------    2.0   0.0   0.0   0.0   ----- 
Sat 05:00   NE 19/ 28  10.9  9.3  ------    2.0   0.0   0.0   0.0   ----- 
Sat 05:30  NNE 19/ 24  10.9  8.8  ------    2.0   0.0   0.0   0.0   ----- 
Sat 06:00  NNE 11/ 15  10.8  8.7  ------    2.0   0.0   0.0   0.0   ----- 
Sat 06:30  NNE 13/ 17  10.7  8.8  ------    2.0   0.0   0.0   0.0   ----- 
Sat 06:30  NNE 13/ 17  10.7  8.8  ------    2.0   0.0  ----   0.0   ----- 
Sat 07:00  NNE 15/ 19  10.7  8.6  ------    2.0   0.0   0.0   0.0   ----- 
Sat 07:30  NNE 13/ 20  11.2  8.6  ------    2.0   0.0   0.0   0.0   ----- 
Sat 08:00    N 15/ 24  11.6  7.9  ------    2.0   0.0   0.0   0.0   ----- 
Sat 08:30    N 11/ 17  11.6  7.5  ------    2.0   0.0   0.0   0.0   ----- 

MANGALORE AIRPORT

Site: 088109
Alt: 140.8m
16km NNE of SEYMOUR


  Time     Wind        Temp  DP   Baro     Rain since   Rain past  Vis(m), Cloud(base in m), Weather
  local        km/h                         9am  last   hr   10m    
Sat 03:00   NE  9/ 11  11.8 10.2  1015.8   ----  ----  ----   0.0   10000|SC2820 SC3300 
Sat 03:30   NE 11/ 15  12.1 11.0  1015.4   ----  ----  ----   0.0   10000|SC 780 SC1830 BR2760 
Sat 04:00  ENE 11/ 17  12.9 10.8  1014.8   ----  ----  ----   0.0   10000|OC2760 
Sat 04:30  ENE 19/ 24  13.0 10.5  1014.5   ----  ----  ----   0.0   10000|SC2700 BR3450 
Sat 05:00   NE 13/ 17  12.7 10.1  1015.0   ----  ----  ----   0.0   10000|BR2820 
Sat 05:30  ENE 11/ 15  11.8  9.7  1014.9   ----  ----  ----   0.0   10000|SC2760 
Sat 06:00   NE  9/ 15  12.1 10.2  1015.1   ----  ----  ----   0.0   10000|BR2880 BR3300 
Sat 06:30   NE 13/ 15  11.1  9.4  1015.0   ----  ----  ----   0.0   10000|SC2760 SC3750 
Sat 06:30   NE 13/ 15  11.1  9.4  1015.0   ----  ----  ----   0.0   10000|SC2760 SC3750 
Sat 07:00   NE  7/  9  11.8  9.9  1015.1   ----  ----  ----   0.0   10000|SC3000 BR3750 
Sat 07:30   NE  9/ 11  11.2  9.3  1015.3   ----  ----  ----   0.0   10000|SC3000 
Sat 08:00   NE  9/  9  11.2  9.5  1015.5   ----  ----  ----   0.0   10000|BR2970 OC3450 
Sat 08:30   NE  7/  9  12.3 10.9  1015.6   ----  ----  ----   0.0   10000|BR3000 

PUCKAPUNYAL LYON HILL (DEFENCE)

Site: 088167
Alt: 193.0m
km of


  Time     Wind        Temp  DP   Baro     Rain since   Rain past  Vis(m), Cloud(base in m), Weather
  local        km/h                         9am  last   hr   10m    
Sat 03:00  NNE  9/ 15  12.6 11.3  ------    0.6   0.0   0.2   0.0   ----- 
Sat 03:30  ENE 11/ 15  12.5 11.4  ------    0.6   0.0   0.0   0.0   ----- 
Sat 04:00  ENE 11/ 15  12.5 11.2  ------    0.6   0.0   0.0   0.0   ----- 
Sat 04:30    N  9/ 15  12.7 10.9  ------    0.6   0.0   0.0   0.0   ----- 
Sat 05:00    N  7/  9  12.1 10.7  ------    0.6   0.0   0.0   0.0   ----- 
Sat 05:30  NNE  7/ 11  12.0 10.6  ------    0.6   0.0   0.0   0.0   ----- 
Sat 06:00  NNE  9/ 13  12.1 10.3  ------    0.6   0.0   0.0   0.0   ----- 
Sat 06:30    N  7/  9  11.3  9.9  ------    0.6   0.0   0.0   0.0   ----- 
Sat 06:30    N  7/  9  11.3  9.9  ------    0.6   0.0  ----   0.0   ----- 
Sat 07:00    N  7/  9  11.5 10.4  ------    0.6   0.0   0.0   0.0   ----- 
Sat 07:30    N  7/ 11  11.4 10.3  ------    0.6   0.0   0.0   0.0   ----- 
Sat 08:00    N  9/ 11  11.2 10.3  ------    0.6   0.0   0.0   0.0   ----- 
Sat 08:30    N  7/  9  11.2 10.1  ------    0.6   0.0   0.0   0.0   ----- 

PUCKAPUNYAL WEST (DEFENCE)

Site: 088166
Alt: 293.0m
km of


  Time     Wind        Temp  DP   Baro     Rain since   Rain past  Vis(m), Cloud(base in m), Weather
  local        km/h                         9am  last   hr   10m    
Sat 03:00    N  2/  7  11.3 10.5  ------    2.0   0.2   0.2   0.0   ----- 
Sat 03:30    C  0/  0  10.8 10.2  ------    2.0   0.0   0.2   0.0   ----- 
Sat 04:00    S  6/  7   9.9  9.4  ------    2.0   0.0   0.0   0.0   ----- 
Sat 04:30  SSW  4/  6  10.3 10.0  ------    2.0   0.0   0.0   0.0   ----- 
Sat 05:00    C  0/  0   9.8  9.5  ------    2.0   0.0   0.0   0.0   ----- 
Sat 05:30    C  0/  0  10.1  9.8  ------    2.0   0.0   0.0   0.0   ----- 
Sat 06:00    C  0/  0   9.8  9.5  ------    2.0   0.0   0.0   0.0   ----- 
Sat 06:30    C  0/  0  10.2 10.1  ------    2.0   0.0   0.0   0.0   ----- 
Sat 06:30    C  0/  0  10.2 10.1  ------    2.0   0.0  ----   0.0   ----- 
Sat 07:00    C  0/  0   9.7  9.6  ------    2.0   0.0   0.0   0.0   ----- 
Sat 07:30    C  0/  0  10.4 10.2  ------    2.0   0.0   0.0   0.0   ----- 
Sat 08:00    C  0/  0   9.8  9.7  ------    2.0   0.0   0.0   0.0   ----- 
Sat 08:30   NW  2/  4  10.0  9.9  ------    2.0   0.0   0.0   0.0   ----- 

REDESDALE

Site: 088051
Alt: 290.0m
36km SE of BENDIGO


  Time     Wind        Temp  DP   Baro     Rain since   Rain past  Vis(m), Cloud(base in m), Weather
  local        km/h                         9am  last   hr   10m    
Sat 03:00    C  0/  2   9.9  9.8  ------    2.2   0.0   0.0   0.0   ----- 
Sat 03:30  SSW  2/  4   9.4  9.3  ------    2.2   0.0   0.0   0.0   ----- 
Sat 04:00  SSW  6/  7   8.7  8.6  ------    2.2   0.0   0.0   0.0   ----- 
Sat 04:30    C  0/  0   8.8  8.7  ------    2.2   0.0   0.0   0.0   ----- 
Sat 05:00    C  0/  0   8.3  8.2  ------    2.4   0.2   0.2   0.0   ----- 
Sat 05:30    C  0/  0   8.1  8.0  ------    2.4   0.0   0.2   0.0   ----- 
Sat 06:00    C  0/  0   8.2  8.1  ------    2.4   0.0   0.0   0.0   ----- 
Sat 06:30  SSW  2/  4   8.3  8.2  ------    2.4   0.0   0.0   0.0   ----- 
Sat 06:30  SSW  2/  4   8.3  8.2  ------    2.4   0.0  ----   0.0   ----- 
Sat 07:00  SSW  4/  4   8.0  7.9  ------    2.4   0.0   0.0   0.0   ----- 
Sat 07:30    C  0/  0   7.2  7.1  ------    2.4   0.0   0.0   0.0   ----- 
Sat 08:00  SSW  4/  6   7.4  7.3  ------    2.4   0.0   0.0   0.0   ----- 
Sat 08:30    C  0/  0   8.2  8.1  ------    2.4   0.0   0.0   0.0   ----- 

WALLAN (KILMORE GAP)

Site: 088162
Alt: 527.8m
43km SSW of SEYMOUR


  Time     Wind        Temp  DP   Baro     Rain since   Rain past  Vis(m), Cloud(base in m), Weather
  local        km/h                         9am  last   hr   10m    
Sat 03:00    N 37/ 46  10.6 10.4  1014.8    0.6   0.0   0.0   0.0   10000|SC2070 SC2490 SC3000 
Sat 03:30    N 35/ 43  10.4 10.2  1014.6    0.6   0.0   0.0   0.0   10000|SC  30 SC 510 BR1920 
Sat 03:34    N 37/ 45  10.4 10.4  1014.6    0.6   0.0  ----   0.0    7000|SC  30 SC 450 BR1920 
Sat 03:40    N 37/ 45  10.2 10.1  1014.3    0.6   0.0  ----   0.0    6000|BR  30 BR 360 BR2040 
Sat 03:55    N 37/ 45  10.2 10.2  1014.1    0.6   0.0  ----   0.0   10000|SC  30 BR2040 
Sat 04:00    N 35/ 45  10.2 10.2  1014.0    0.6   0.0   0.0   0.0   10000|SC  30 
Sat 04:03    N 35/ 45  10.2 10.2  1014.0    0.6   0.0  ----   0.0   10000|SC  30 
Sat 04:30    N 37/ 46  10.3 10.3  1013.7    0.8   0.2   0.2   0.2   10000 
Sat 05:00    N 39/ 46  10.6 10.4  1013.8    0.8   0.0   0.2   0.0   10000 
Sat 05:30    N 39/ 46  10.6 10.4  1013.9    0.8   0.0   0.0   0.0   10000 
Sat 06:00    N 41/ 50  10.3 10.1  1014.0    0.8   0.0   0.0   0.0   10000 
Sat 06:30    N 35/ 45   9.8  9.7  1014.1    0.8   0.0   0.0   0.0   10000 
Sat 06:30    N 35/ 45   9.8  9.7  1014.1    0.8   0.0  ----   0.0   10000 
Sat 06:42    N 33/ 41   9.7  9.6  1014.2    0.8   0.0  ----   0.0    7000|SC  30 
Sat 06:42    N 33/ 41   9.7  9.6  1014.2    0.8   0.0  ----   0.0    7000|SC  30 
Sat 06:47    N 33/ 39   9.6  9.5  1014.2    0.8   0.0  ----   0.0    2200|BR  30 
Sat 06:47    N 33/ 39   9.6  9.5  1014.2    0.8   0.0  ----   0.0    2200|BR  30 
Sat 07:00    N 33/ 43   9.8  9.8  1014.2    0.8   0.0   0.0   0.0     300|BR  30 
Sat 07:05    N 35/ 43   9.8  9.8  1014.2    0.8   0.0  ----   0.0     200|OC  30 
Sat 07:30    N 32/ 39   9.7  9.7  1014.3    0.8   0.0   0.0   0.0     100|OC  30 
Sat 08:00    N 33/ 39   9.8  9.8  1014.2    0.8   0.0   0.0   0.0     100|OC  30 
Sat 08:05    N 33/ 41   9.8  9.8  1014.1    0.8   0.0  ----   0.0     200|OC  30 
Sat 08:30  NNW 33/ 41  10.0 10.0  1014.2    0.8   0.0   0.0   0.0   10000|SC  30 
Sat 08:39  NNW 33/ 39  10.0 10.0  1014.2    0.8   0.0   0.0   0.0   10000|SC  30 
Sat 08:40  NNW 33/ 39  10.0 10.0  1014.2    0.8   0.0   0.0   0.0   10000|SC  30